LICR/REG METAR and TAF weather

Enter ICAO airport designator
Station Type Date Time Source
LICR METAR 2020/06/05 09:50 UTC NOAA

LICR 050950Z 22013KT 9999 FEW040 23/18 Q1007


Station Type Date Time Source
LICR Decoded METAR 2020/06/05 09:50 UTC NOAA

Reggio Calabria, Italy (LICR) 38-04N 015-39E 21M
Jun 05, 2020 - 05:50 AM EDT / 2020.06.05 0950 UTC
Wind: from the SW (220 degrees) at 15 MPH (13 KT):0
Visibility: greater than 7 mile(s):0
Sky conditions: mostly clear
Temperature: 73 F (23 C)
Dew Point: 64 F (18 C)
Relative Humidity: 73%
Pressure (altimeter): 29.74 in. Hg (1007 hPa)
ob: LICR 050950Z 22013KT 9999 FEW040 23/18 Q1007
cycle: 10

Station Type Date Time Source
LICR TAF 2020/06/05 09:42 UTC NOAA

TAF
AMD TAF
AMD LICR 050933Z 0509/0606 18012KT 9999 SCT030
BECMG 0509/0512 35015KT
TEMPO 0512/0518 TSR

Example: see airport list